Cummingsville, Minnesota
Current Conditions -  °F | °C
As of 12:35 AM on Thursday 27 Nov 2014 (Local Time) from KFKA Reporting Station
Overcast Overcast  
Wind Chill:   Ceiling: 1800
Heat Index: 20°   Visibility: 10mi
Dew Point: 16°   Wind: 12mph
Humidity: 87%   Direction: 330°NNW
Pressure: 30.3"   Gusts: NA
Location:  43.8233°N, 92.1103°W
Report Text: KFKA 270635Z AUTO 33010KT 10SM SCT012 BKN018 OVC024 M07/M09 A3030 RMK AO2 T10691088
Loading
Personal Weather Stations






























Interactive Weather Map New forecast layout! Learn more

10-Day Weather Forecast

Advertisements
Track Severe Weather on mobile